Time;durP1;ratioP1;P1;durP2;ratioP2;P2;SDS_P1;SDS_P2;PMS_P1;PMS_P2;Temp;Humidity;BMP_temperature;BMP_pressure;BME280_temperature;BME280_humidity;BME280_pressure;Samples;Min_cycle;Max_cycle;Signal;HPM_P1;HPM_P2
2022/11/30 00:00:59;;;;;;;10.10;4.07;;;;;;;6.48;100.00;102177.78;4976925;28;20041;-83
2022/11/30 00:03:33;;;;;;;9.75;4.05;;;;;;;6.48;100.00;102174.34;4977189;28;20063;-83
2022/11/30 00:06:07;;;;;;;7.85;3.70;;;;;;;6.50;100.00;102177.84;4977534;28;20050;-82
2022/11/30 00:08:36;;;;;;;9.90;4.18;;;;;;;6.49;100.00;102176.09;4976184;28;20030;-82
2022/11/30 00:11:16;;;;;;;10.80;4.80;;;;;;;6.52;100.00;102178.75;4976458;28;20058;-82
2022/11/30 00:13:42;;;;;;;26.85;13.55;;;;;;;6.46;100.00;102178.59;4977297;28;20027;-82
2022/11/30 00:16:09;;;;;;;31.33;16.07;;;;;;;6.42;100.00;102176.75;4976262;28;20015;-82
2022/11/30 00:18:35;;;;;;;32.00;16.77;;;;;;;6.37;100.00;102175.81;4972639;28;20034;-82
2022/11/30 00:21:01;;;;;;;34.22;17.85;;;;;;;6.33;100.00;102177.44;4977298;28;20030;-82
2022/11/30 00:23:34;;;;;;;31.65;17.13;;;;;;;6.33;100.00;102187.75;4975932;28;20031;-82
2022/11/30 00:26:05;;;;;;;29.60;15.90;;;;;;;6.32;100.00;102184.28;4977318;28;20022;-82
2022/11/30 00:28:32;;;;;;;28.10;14.13;;;;;;;6.33;100.00;102185.19;4976394;28;20027;-82
2022/11/30 00:30:59;;;;;;;;;;;;;;;6.32;100.00;102184.28;4977643;28;20030;-82
2022/11/30 00:33:24;;;;;;;31.30;16.85;;;;;;;6.28;100.00;102187.66;4976757;28;20009;-82
2022/11/30 00:36:06;;;;;;;31.08;15.77;;;;;;;6.28;100.00;102185.06;4976382;28;20417;-82
2022/11/30 00:38:33;;;;;;;29.02;15.40;;;;;;;6.29;100.00;102188.50;4957432;29;20035;-82
2022/11/30 00:40:59;;;;;;;33.23;17.90;;;;;;;6.25;100.00;102187.56;4957455;29;20110;-82
2022/11/30 00:43:24;;;;;;;33.67;17.75;;;;;;;6.23;100.00;102184.06;4956264;29;20032;-82
2022/11/30 00:45:49;;;;;;;32.83;17.13;;;;;;;6.21;100.00;102193.47;4957521;29;20392;-82
2022/11/30 00:48:14;;;;;;;30.05;16.20;;;;;;;6.23;100.00;102189.22;4955931;28;20027;-83
2022/11/30 00:50:40;;;;;;;27.75;13.70;;;;;;;6.25;100.00;102197.03;4956257;29;20039;-82
2022/11/30 00:53:05;;;;;;;23.73;11.02;;;;;;;6.27;100.00;102188.47;4957109;29;20031;-82
2022/11/30 00:55:32;;;;;;;21.63;9.48;;;;;;;6.30;100.00;102188.56;4956966;28;20142;-82
2022/11/30 00:57:57;;;;;;;18.63;8.35;;;;;;;6.33;100.00;102192.91;4956668;29;20027;-82
2022/11/30 01:00:23;;;;;;;18.05;7.78;;;;;;;6.34;100.00;102195.50;4957043;29;20031;-82
2022/11/30 01:02:52;;;;;;;16.80;7.35;;;;;;;6.37;100.00;102191.28;4956691;29;20404;-82
2022/11/30 01:05:18;;;;;;;15.95;6.82;;;;;;;6.40;100.00;102199.09;4955966;29;20090;-82
2022/11/30 01:07:43;;;;;;;13.00;5.57;;;;;;;6.42;100.00;102192.22;4970878;28;20118;-82
2022/11/30 01:10:08;;;;;;;11.82;5.13;;;;;;;6.43;100.00;102192.28;4976084;28;20464;-82
2022/11/30 01:12:34;;;;;;;12.93;5.40;;;;;;;6.45;100.00;102194.91;4975677;28;20092;-82
2022/11/30 01:14:59;;;;;;;18.05;7.63;;;;;;;6.43;100.00;102202.59;4976054;28;20488;-82
2022/11/30 01:17:24;;;;;;;18.35;7.97;;;;;;;6.43;100.00;102197.44;4975731;28;20027;-82
2022/11/30 01:19:49;;;;;;;15.65;6.50;;;;;;;6.45;100.00;102194.91;4975477;28;20037;-82
2022/11/30 01:22:15;;;;;;;15.68;6.10;;;;;;;6.46;100.00;102192.38;4975239;28;20023;-82
2022/11/30 01:24:40;;;;;;;17.25;6.65;;;;;;;6.46;100.00;102192.38;4974809;28;20027;-82
2022/11/30 01:27:05;;;;;;;14.85;6.03;;;;;;;6.46;100.00;102192.38;4975678;28;20491;-82
2022/11/30 01:29:30;;;;;;;15.35;6.30;;;;;;;6.46;100.00;102197.53;4975499;28;20085;-83
2022/11/30 01:31:56;;;;;;;14.55;6.13;;;;;;;6.46;100.00;102196.63;4975154;28;20688;-82
2022/11/30 01:34:21;;;;;;;16.80;7.18;;;;;;;6.45;100.00;102197.47;4975230;28;20035;-82
2022/11/30 01:36:47;;;;;;;13.57;6.13;;;;;;;6.43;100.00;102196.56;4975237;28;20019;-82
2022/11/30 01:39:13;;;;;;;13.43;5.78;;;;;;;6.43;100.00;102204.28;4974928;28;20034;-82
2022/11/30 01:41:39;;;;;;;14.50;5.65;;;;;;;6.41;100.00;102206.00;4975799;28;20357;-83
2022/11/30 01:44:04;;;;;;;11.85;5.07;;;;;;;6.40;100.00;102205.09;4975217;28;20063;-82
2022/11/30 01:46:43;;;;;;;10.38;4.47;;;;;;;6.41;100.00;102208.56;4975004;28;20390;-83
2022/11/30 01:49:09;;;;;;;11.90;5.00;;;;;;;6.41;100.00;102204.28;4975306;28;20413;-82
2022/11/30 01:51:37;;;;;;;10.43;4.78;;;;;;;6.41;100.00;102204.28;4975732;28;20061;-83
2022/11/30 01:54:06;;;;;;;11.35;4.68;;;;;;;6.42;100.00;102211.19;4974928;28;20122;-82
2022/11/30 01:56:32;;;;;;;8.80;4.10;;;;;;;6.45;100.00;102212.94;4975438;28;20051;-82
2022/11/30 01:58:57;;;;;;;8.18;4.03;;;;;;;6.45;100.00;102216.41;4974974;28;20062;-82
2022/11/30 02:01:24;;;;;;;8.60;4.18;;;;;;;6.44;100.00;102217.25;4974219;28;20106;-82
2022/11/30 02:03:59;;;;;;;11.32;5.00;;;;;;;6.43;100.00;102215.50;4975318;28;20109;-82
2022/11/30 02:06:24;;;;;;;13.23;5.18;;;;;;;6.42;100.00;102221.50;4973730;28;20163;-82
2022/11/30 02:08:52;;;;;;;18.60;8.27;;;;;;;6.40;100.00;102224.88;4974164;28;20023;-82
2022/11/30 02:11:17;;;;;;;17.77;7.53;;;;;;;6.39;100.00;102225.72;4974886;28;20041;-82
2022/11/30 02:14:13;;;;;;;20.02;9.23;;;;;;;6.37;100.00;102224.78;4974833;28;20022;-83
2022/11/30 02:16:38;;;;;;;20.35;9.38;;;;;;;6.33;100.00;102222.13;4974886;28;20045;-82
2022/11/30 02:19:10;;;;;;;20.60;10.27;;;;;;;6.31;100.00;102221.22;4975157;28;20023;-82
2022/11/30 02:21:47;;;;;;;21.20;10.15;;;;;;;6.29;100.00;102228.06;4974104;28;20058;-82
2022/11/30 02:24:35;;;;;;;20.55;9.70;;;;;;;6.28;100.00;102222.84;4974630;28;20197;-82
2022/11/30 02:27:37;;;;;;;19.92;9.80;;;;;;;6.27;100.00;102218.53;4974845;28;20038;-82
2022/11/30 02:30:12;;;;;;;18.73;8.98;;;;;;;6.27;100.00;102222.00;4973921;28;20118;-82
2022/11/30 02:32:49;;;;;;;16.98;7.30;;;;;;;6.28;100.00;102222.84;4974473;28;20033;-82
2022/11/30 02:35:17;;;;;;;;;;;;;;;6.29;100.00;102227.19;4973536;28;20089;-82
2022/11/30 02:37:44;;;;;;;17.08;7.53;;;;;;;6.28;100.00;102222.84;4974317;28;19924;-83
2022/11/30 02:40:12;;;;;;;15.38;6.97;;;;;;;6.30;100.00;102216.91;4974454;28;20030;-82
2022/11/30 02:42:38;;;;;;;12.63;5.70;;;;;;;6.31;100.00;102223.78;4973829;28;20038;-82
2022/11/30 02:45:06;;;;;;;12.23;5.33;;;;;;;6.32;100.00;102222.97;4974063;28;20383;-82
2022/11/30 02:47:44;;;;;;;12.30;5.63;;;;;;;6.32;100.00;102227.25;4974513;28;20027;-82
2022/11/30 02:50:16;;;;;;;13.32;5.53;;;;;;;6.33;100.00;102229.00;4973768;28;20030;-83
2022/11/30 02:52:41;;;;;;;12.00;5.05;;;;;;;6.34;100.00;102228.19;4974576;28;20022;-82
2022/11/30 02:55:09;;;;;;;10.52;4.95;;;;;;;6.36;100.00;102234.22;4973713;28;20037;-83
2022/11/30 02:57:35;;;;;;;11.20;5.00;;;;;;;6.38;100.00;102232.56;4973478;28;20063;-82
2022/11/30 03:00:05;;;;;;;8.93;4.67;;;;;;;6.40;100.00;102240.34;4974043;28;20027;-83
2022/11/30 03:02:31;;;;;;;10.75;4.85;;;;;;;6.43;100.00;102235.25;4974074;28;20027;-82
2022/11/30 03:04:56;;;;;;;9.15;4.22;;;;;;;6.45;100.00;102231.00;4972980;28;20393;-82
2022/11/30 03:07:22;;;;;;;9.43;4.53;;;;;;;6.47;100.00;102229.34;4973857;28;20046;-82
2022/11/30 03:09:47;;;;;;;9.67;4.50;;;;;;;6.48;100.00;102231.94;4973859;28;20027;-82
2022/11/30 03:12:12;;;;;;;8.02;4.43;;;;;;;6.51;100.00;102230.28;4972595;28;20027;-82
2022/11/30 03:14:37;;;;;;;7.97;3.95;;;;;;;6.53;100.00;102232.06;4974373;28;20035;-82
2022/11/30 03:17:04;;;;;;;7.93;3.70;;;;;;;6.54;100.00;102232.94;4974058;28;20076;-82
2022/11/30 03:19:29;;;;;;;7.00;3.67;;;;;;;6.55;100.00;102227.81;4973603;28;20045;-83
2022/11/30 03:21:55;;;;;;;8.52;4.00;;;;;;;6.56;100.00;102233.84;4974160;28;20098;-84
2022/11/30 03:24:23;;;;;;;7.47;3.80;;;;;;;6.56;100.00;102226.97;4973297;28;20027;-83
2022/11/30 03:26:49;;;;;;;8.32;4.00;;;;;;;6.58;100.00;102227.03;4974081;28;20041;-83
2022/11/30 03:29:15;;;;;;;7.82;3.90;;;;;;;6.61;100.00;102234.81;4973862;28;20031;-83
2022/11/30 03:31:40;;;;;;;8.98;4.07;;;;;;;6.60;100.00;102227.91;4972258;28;20019;-82
2022/11/30 03:34:05;;;;;;;8.98;4.30;;;;;;;6.60;100.00;102233.97;4973543;28;20034;-82
2022/11/30 03:36:31;;;;;;;7.85;4.15;;;;;;;6.61;100.00;102229.66;4974190;28;20126;-83
2022/11/30 03:38:56;;;;;;;7.93;4.00;;;;;;;6.61;100.00;102227.97;4973018;28;20375;-83
2022/11/30 03:41:21;;;;;;;8.35;4.00;;;;;;;6.60;100.00;102221.06;4973741;28;20039;-83
2022/11/30 03:43:47;;;;;;;7.28;3.90;;;;;;;6.61;100.00;102232.25;4973759;28;20031;-83
2022/11/30 03:46:12;;;;;;;8.73;4.10;;;;;;;6.61;100.00;102227.06;4972844;28;20082;-83
2022/11/30 03:48:40;;;;;;;8.02;4.22;;;;;;;6.61;100.00;102235.72;4974046;28;20026;-83
2022/11/30 03:51:05;;;;;;;9.27;4.22;;;;;;;6.62;100.00;102242.63;4973245;28;20034;-82
2022/11/30 03:53:31;;;;;;;9.43;4.10;;;;;;;6.60;100.00;102233.97;4972602;28;20034;-82
2022/11/30 03:56:05;;;;;;;7.00;3.83;;;;;;;6.60;100.00;102238.22;4973257;28;20510;-82
2022/11/30 03:58:31;;;;;;;7.20;3.80;;;;;;;6.59;100.00;102242.53;4972750;28;20042;-82
2022/11/30 04:01:15;;;;;;;8.67;4.00;;;;;;;6.59;100.00;102241.63;4972284;28;20372;-82
2022/11/30 04:03:42;;;;;;;8.45;3.83;;;;;;;6.58;100.00;102235.63;4972025;28;20062;-82
2022/11/30 04:06:09;;;;;;;8.30;4.20;;;;;;;6.58;100.00;102232.19;4972799;28;20022;-82
2022/11/30 04:08:36;;;;;;;8.35;3.90;;;;;;;6.56;100.00;102232.13;4972630;28;20019;-82
2022/11/30 04:11:02;;;;;;;7.35;4.00;;;;;;;6.55;100.00;102238.13;4973258;28;20047;-82
2022/11/30 04:13:28;;;;;;;8.80;4.00;;;;;;;6.55;100.00;102240.69;4972669;28;20031;-82
2022/11/30 04:15:54;;;;;;;9.85;4.35;;;;;;;6.55;100.00;102234.69;4972730;28;20026;-82
2022/11/30 04:18:22;;;;;;;7.95;4.00;;;;;;;6.54;100.00;102233.78;4972938;28;20379;-82
2022/11/30 04:20:52;;;;;;;8.30;4.20;;;;;;;6.55;100.00;102239.84;4972542;28;20427;-82
2022/11/30 04:23:19;;;;;;;8.73;4.15;;;;;;;6.53;100.00;102242.38;4975614;28;20045;-82
2022/11/30 04:25:44;;;;;;;8.18;4.03;;;;;;;6.53;100.00;102238.94;4976643;28;20026;-82
2022/11/30 04:28:10;;;;;;;8.00;4.15;;;;;;;6.53;100.00;102244.09;4976103;28;20491;-83
2022/11/30 04:30:36;;;;;;;8.82;4.45;;;;;;;6.52;100.00;102245.81;4976107;28;20027;-82
2022/11/30 04:33:02;;;;;;;9.20;4.07;;;;;;;6.51;100.00;102238.91;4976742;28;20030;-82
2022/11/30 04:35:28;;;;;;;7.43;3.80;;;;;;;6.50;100.00;102239.75;4975336;28;20038;-83
2022/11/30 04:37:53;;;;;;;8.98;4.25;;;;;;;6.50;100.00;102247.47;4976403;28;20026;-82
2022/11/30 04:40:19;;;;;;;8.63;4.35;;;;;;;6.49;100.00;102241.44;4976271;28;20035;-83
2022/11/30 04:42:44;;;;;;;8.13;4.13;;;;;;;6.48;100.00;102241.41;4975785;28;20062;-82
2022/11/30 04:45:10;;;;;;;8.90;4.45;;;;;;;6.48;100.00;102244.84;4975978;28;20031;-82
2022/11/30 04:47:36;;;;;;;7.93;4.10;;;;;;;6.47;100.00;102243.09;4976426;28;20038;-82
2022/11/30 04:50:03;;;;;;;8.00;4.07;;;;;;;6.46;100.00;102245.66;4975974;28;20380;-82
2022/11/30 04:52:29;;;;;;;;;;;;;;;6.46;100.00;102250.81;4976820;28;20038;-82
2022/11/30 04:54:55;;;;;;;8.63;4.20;;;;;;;6.45;100.00;102246.47;4976233;28;20278;-82
2022/11/30 04:57:21;;;;;;;7.68;3.70;;;;;;;6.43;100.00;102245.56;4975258;28;20106;-82
2022/11/30 04:59:46;;;;;;;8.35;4.20;;;;;;;6.43;100.00;102248.13;4975758;28;20166;-83
2022/11/30 05:02:11;;;;;;;7.78;4.05;;;;;;;6.41;100.00;102244.69;4975512;28;20038;-82
2022/11/30 05:04:37;;;;;;;9.50;4.30;;;;;;;6.39;100.00;102246.34;4975348;28;20089;-83
2022/11/30 05:07:02;;;;;;;9.23;4.45;;;;;;;6.37;100.00;102251.44;4975413;28;20077;-82
2022/11/30 05:09:27;;;;;;;8.40;4.28;;;;;;;6.35;100.00;102247.97;4976118;28;20018;-83
2022/11/30 05:11:53;;;;;;;8.43;4.20;;;;;;;6.33;100.00;102247.91;4974918;28;20464;-83
2022/11/30 05:14:18;;;;;;;7.60;4.00;;;;;;;6.30;100.00;102245.28;4975176;28;20037;-82
2022/11/30 05:16:46;;;;;;;9.32;4.43;;;;;;;6.28;100.00;102249.53;4975014;28;20027;-82
2022/11/30 05:19:12;;;;;;;8.68;4.28;;;;;;;6.26;100.00;102255.47;4975391;28;20022;-83
2022/11/30 05:21:37;;;;;;;8.20;4.20;;;;;;;6.24;100.00;102257.16;4975942;28;20035;-82
2022/11/30 05:24:03;;;;;;;6.45;3.80;;;;;;;6.23;100.00;102263.13;4974998;28;20022;-82
2022/11/30 05:26:28;;;;;;;8.18;4.22;;;;;;;6.20;100.00;102258.75;4975322;28;20491;-82
2022/11/30 05:28:54;;;;;;;9.57;4.38;;;;;;;6.20;100.00;102255.31;4975071;28;20041;-83
2022/11/30 05:31:19;;;;;;;8.93;4.30;;;;;;;6.19;100.00;102262.19;4974766;28;20019;-82
2022/11/30 05:33:49;;;;;;;9.48;4.65;;;;;;;6.19;100.00;102259.63;4975204;28;20110;-82
2022/11/30 05:36:15;;;;;;;7.57;4.22;;;;;;;6.18;100.00;102268.19;4975708;28;20038;-83
2022/11/30 05:38:40;;;;;;;8.07;4.30;;;;;;;6.16;100.00;102262.97;4975174;28;20062;-83
2022/11/30 05:41:05;;;;;;;9.27;4.50;;;;;;;6.18;100.00;102268.19;4975795;28;20086;-82
2022/11/30 05:43:43;;;;;;;9.02;4.40;;;;;;;6.15;100.00;102265.50;4967209;28;20038;-83
2022/11/30 05:46:11;;;;;;;8.40;4.35;;;;;;;6.13;100.00;102265.47;4974722;28;20476;-82
2022/11/30 05:48:43;;;;;;;8.50;4.38;;;;;;;6.13;100.00;102272.31;4975471;28;20057;-83
2022/11/30 05:51:11;;;;;;;9.18;4.30;;;;;;;6.13;100.00;102274.91;4975349;28;20428;-82
2022/11/30 05:53:37;;;;;;;8.30;4.10;;;;;;;6.15;100.00;102280.97;4974883;28;20041;-83
2022/11/30 05:56:08;;;;;;;7.30;3.90;;;;;;;6.15;100.00;102274.09;4975495;28;20051;-83
2022/11/30 05:58:40;;;;;;;8.55;4.30;;;;;;;6.12;100.00;102275.72;4974933;28;20022;-82
2022/11/30 06:01:06;;;;;;;6.78;3.95;;;;;;;6.12;100.00;102286.94;4973204;28;20023;-82
2022/11/30 06:03:33;;;;;;;7.97;4.28;;;;;;;6.13;100.00;102291.25;4974289;28;20479;-83
2022/11/30 06:05:58;;;;;;;8.05;4.00;;;;;;;6.12;100.00;102292.09;4973523;28;20034;-82
2022/11/30 06:08:26;;;;;;;6.70;3.70;;;;;;;6.12;100.00;102286.03;4973761;28;20399;-83
2022/11/30 06:10:52;;;;;;;9.10;4.30;;;;;;;6.12;100.00;102288.63;4974318;28;20468;-83
2022/11/30 06:13:17;;;;;;;6.85;3.75;;;;;;;6.10;100.00;102287.69;4973271;28;20033;-82
2022/11/30 06:15:43;;;;;;;8.80;4.27;;;;;;;6.10;100.00;102293.75;4974000;28;20022;-82
2022/11/30 06:18:10;;;;;;;8.43;4.33;;;;;;;6.10;100.00;102285.13;4973742;28;20023;-83
2022/11/30 06:20:36;;;;;;;8.00;4.20;;;;;;;6.09;100.00;102289.41;4973244;28;20081;-82
2022/11/30 06:23:01;;;;;;;7.75;3.95;;;;;;;6.09;100.00;102289.41;4974154;28;20022;-82
2022/11/30 06:25:26;;;;;;;8.63;4.25;;;;;;;6.09;100.00;102293.69;4973252;28;20033;-83
2022/11/30 06:27:52;;;;;;;6.90;4.07;;;;;;;6.08;100.00;102295.41;4973093;28;20108;-83
2022/11/30 06:30:18;;;;;;;6.53;3.88;;;;;;;6.06;100.00;102293.63;4973621;28;20034;-82
2022/11/30 06:33:04;;;;;;;6.70;3.95;;;;;;;6.05;100.00;102297.88;4973766;28;20042;-83
2022/11/30 06:35:32;;;;;;;7.90;3.75;;;;;;;6.02;100.00;102292.69;4972544;28;20550;-83
2022/11/30 06:37:59;;;;;;;7.93;4.22;;;;;;;6.05;100.00;102297.03;4974062;28;20023;-83
2022/11/30 06:40:24;;;;;;;;;;;;;;;6.04;100.00;102296.13;4973877;28;20037;-83
2022/11/30 06:42:50;;;;;;;7.47;3.90;;;;;;;6.03;100.00;102292.72;4973093;28;19914;-82
2022/11/30 06:45:18;;;;;;;7.78;3.67;;;;;;;6.03;100.00;102297.88;4972362;28;20035;-82
2022/11/30 06:47:44;;;;;;;7.80;3.83;;;;;;;6.03;100.00;102299.53;4974144;28;20093;-83
2022/11/30 06:50:11;;;;;;;6.95;3.85;;;;;;;6.02;100.00;102298.69;4972711;28;20110;-83
2022/11/30 06:52:36;;;;;;;7.13;3.92;;;;;;;6.00;100.00;102297.78;4973745;28;20472;-83
2022/11/30 06:55:02;;;;;;;6.85;3.85;;;;;;;6.01;100.00;102307.25;4935947;28;1083667;-82
2022/11/30 06:57:29;;;;;;;7.97;3.95;;;;;;;6.00;100.00;102305.50;4973213;28;20037;-83
2022/11/30 06:59:55;;;;;;;8.65;4.20;;;;;;;6.00;100.00;102302.94;4974603;28;20078;-82
2022/11/30 07:02:20;;;;;;;9.27;4.40;;;;;;;6.01;100.00;102312.41;4973401;28;20061;-81
2022/11/30 07:04:45;;;;;;;9.38;4.40;;;;;;;6.01;100.00;102303.81;4974530;28;20028;-81
2022/11/30 07:07:10;;;;;;;8.75;4.43;;;;;;;6.00;100.00;102308.06;4973816;28;20491;-84
2022/11/30 07:09:36;;;;;;;7.88;4.25;;;;;;;6.01;100.00;102311.53;4973411;28;20034;-84
2022/11/30 07:12:02;;;;;;;7.73;3.97;;;;;;;6.01;100.00;102314.13;4974135;28;20037;-84
2022/11/30 07:14:29;;;;;;;9.00;4.40;;;;;;;6.01;100.00;102320.13;4974103;28;20487;-83
2022/11/30 07:16:54;;;;;;;7.60;3.90;;;;;;;6.01;100.00;102317.56;4973617;28;20122;-83
2022/11/30 07:19:19;;;;;;;8.00;4.40;;;;;;;6.01;100.00;102321.84;4973519;28;20117;-83
2022/11/30 07:21:45;;;;;;;7.88;4.10;;;;;;;6.01;100.00;102322.72;4973985;28;20038;-84
2022/11/30 07:26:57;;;;;;;8.40;4.15;;;;;;;6.00;100.00;102328.69;4974447;28;20038;-83
2022/11/30 07:29:22;;;;;;;7.45;3.90;;;;;;;6.00;100.00;102328.69;4973738;28;20120;-83
2022/11/30 07:31:51;;;;;;;8.77;4.28;;;;;;;6.00;100.00;102331.28;4972598;28;20078;-83
2022/11/30 07:34:17;;;;;;;7.55;4.10;;;;;;;6.02;100.00;102344.22;4973657;28;20038;-83
2022/11/30 07:36:43;;;;;;;7.68;4.10;;;;;;;6.00;100.00;102339.00;4973520;28;20027;-82
2022/11/30 07:39:08;;;;;;;8.50;4.05;;;;;;;5.99;100.00;102334.69;4972610;28;20026;-83
2022/11/30 07:41:33;;;;;;;8.43;4.10;;;;;;;6.00;100.00;102343.31;4974138;28;20066;-82
2022/11/30 07:43:59;;;;;;;7.83;4.30;;;;;;;6.00;100.00;102358.75;4973921;28;20543;-82
2022/11/30 07:46:24;;;;;;;7.90;3.90;;;;;;;6.00;100.00;102354.47;4972799;28;20026;-83
2022/11/30 07:48:52;;;;;;;9.02;4.20;;;;;;;6.01;100.00;102352.78;4973681;28;20023;-83
2022/11/30 07:51:20;;;;;;;9.38;4.22;;;;;;;6.02;100.00;102355.38;4973802;28;20019;-83
2022/11/30 07:53:45;;;;;;;8.23;4.30;;;;;;;6.04;100.00;102355.44;4972526;28;20054;-82
2022/11/30 07:56:13;;;;;;;7.60;4.15;;;;;;;6.06;100.00;102352.91;4972696;28;20053;-82
2022/11/30 07:58:40;;;;;;;8.43;4.32;;;;;;;6.07;100.00;102352.94;4976692;28;20479;-83
2022/11/30 08:01:27;;;;;;;7.38;3.90;;;;;;;6.09;100.00;102350.41;4977520;28;20027;-88
2022/11/30 08:03:53;;;;;;;8.20;4.13;;;;;;;6.10;100.00;102362.44;4977375;28;20031;-83
2022/11/30 08:06:23;;;;;;;9.10;4.20;;;;;;;6.11;100.00;102365.09;4976685;28;20030;-83
2022/11/30 08:08:50;;;;;;;7.50;3.92;;;;;;;6.11;100.00;102362.50;4977596;28;20051;-83
2022/11/30 08:11:17;;;;;;;;;;;;;;;6.13;100.00;102358.28;4977709;28;20379;-82
2022/11/30 08:13:42;;;;;;;;;;;;;;;6.14;100.00;102364.28;4977100;28;20325;-83
2022/11/30 08:16:13;;;;;;;8.40;3.77;;;;;;;6.15;100.00;102376.34;4977007;28;19920;-81
2022/11/30 08:18:40;;;;;;;8.48;4.20;;;;;;;6.15;100.00;102373.78;4977937;28;20031;-83
2022/11/30 08:21:07;;;;;;;8.88;4.15;;;;;;;6.15;100.00;102376.34;4975114;28;20101;-82
2022/11/30 08:23:55;;;;;;;8.18;4.18;;;;;;;6.15;100.00;102379.78;4975712;28;20073;-83
2022/11/30 08:26:26;;;;;;;8.48;4.10;;;;;;;6.15;100.00;102371.19;4977002;28;20038;-84
2022/11/30 08:28:52;;;;;;;6.75;3.50;;;;;;;6.14;100.00;102377.19;4975920;28;20023;-82
2022/11/30 08:31:20;;;;;;;8.20;4.00;;;;;;;6.14;100.00;102372.88;4976649;28;20368;-82
2022/11/30 08:33:46;;;;;;;7.63;3.50;;;;;;;6.14;100.00;102382.34;4974908;28;20106;-82
2022/11/30 08:36:16;;;;;;;6.60;3.50;;;;;;;6.15;100.00;102389.25;4976842;28;20157;-83
2022/11/30 08:38:43;;;;;;;8.38;3.83;;;;;;;6.14;100.00;102387.50;4975767;28;20042;-82
2022/11/30 08:41:11;;;;;;;6.13;3.47;;;;;;;6.15;100.00;102392.69;4976029;28;20379;-82
2022/11/30 08:43:36;;;;;;;7.07;3.88;;;;;;;6.14;100.00;102395.22;4976672;28;20034;-83
2022/11/30 08:46:04;;;;;;;8.20;4.10;;;;;;;6.13;100.00;102396.94;4972186;28;20054;-82
2022/11/30 08:48:29;;;;;;;7.03;3.53;;;;;;;6.11;100.00;102392.56;4974193;28;20034;-87
2022/11/30 08:50:59;;;;;;;6.35;3.50;;;;;;;6.09;100.00;102399.38;4975885;28;20030;-83
2022/11/30 08:53:25;;;;;;;7.72;3.83;;;;;;;6.07;100.00;102398.47;4975431;28;20031;-83
2022/11/30 08:56:02;;;;;;;9.07;4.20;;;;;;;6.03;100.00;102395.81;4974649;28;20447;-83
2022/11/30 08:58:31;;;;;;;8.27;4.30;;;;;;;6.03;100.00;102395.81;4975880;28;20042;-83
2022/11/30 09:01:11;;;;;;;7.80;3.90;;;;;;;6.08;100.00;102393.34;4975158;28;20057;-83
2022/11/30 09:03:37;;;;;;;8.70;4.30;;;;;;;6.14;100.00;102401.25;4974881;28;20552;-83
2022/11/30 09:06:07;;;;;;;9.63;4.72;;;;;;;6.19;100.00;102398.81;4975714;28;20019;-83
2022/11/30 09:08:33;;;;;;;10.80;4.70;;;;;;;6.26;100.00;102403.31;4975479;28;20073;-83
2022/11/30 09:11:10;;;;;;;10.40;4.87;;;;;;;6.33;100.00;102399.19;4975871;28;20023;-83
2022/11/30 09:13:36;;;;;;;10.93;4.72;;;;;;;6.39;100.00;102404.50;4976439;28;20288;-83
2022/11/30 09:16:01;;;;;;;10.20;4.78;;;;;;;6.47;100.00;102412.47;4975410;28;20030;-85
2022/11/30 09:18:27;;;;;;;9.43;4.55;;;;;;;6.54;100.00;102411.78;4975766;28;20484;-86
2022/11/30 09:20:53;;;;;;;9.38;4.32;;;;;;;6.60;100.00;102417.13;4976084;28;20033;-81
2022/11/30 09:23:19;;;;;;;10.40;5.25;;;;;;;6.65;100.00;102414.66;4974924;28;20027;-82
2022/11/30 09:25:44;;;;;;;15.07;6.45;;;;;;;6.68;100.00;102424.19;4975758;28;20133;-84
2022/11/30 09:28:09;;;;;;;16.67;7.57;;;;;;;6.72;100.00;102420.84;4976261;28;20488;-85
2022/11/30 09:30:34;;;;;;;23.05;11.98;;;;;;;6.70;100.00;102419.94;4975640;28;20070;-85
2022/11/30 09:33:00;;;;;;;23.67;12.65;;;;;;;6.71;100.00;102419.09;4976172;28;20538;-84
2022/11/30 09:35:43;;;;;;;23.58;12.23;;;;;;;6.76;100.00;102423.56;4982267;23;20463;-84
2022/11/30 09:38:08;;;;;;;23.02;12.57;;;;;;;6.82;100.00;102419.38;4974594;28;20023;-83
2022/11/30 09:40:37;;;;;;;25.47;14.27;;;;;;;6.86;100.00;102429.84;4974714;28;20110;-83
2022/11/30 09:43:31;;;;;;;24.80;13.35;;;;;;;6.80;100.00;102425.41;4981893;28;20054;-84
2022/11/30 09:46:00;;;;;;;23.98;13.30;;;;;;;6.74;100.00;102422.63;4973447;28;20050;-83
2022/11/30 09:48:53;;;;;;;24.50;14.30;;;;;;;6.67;100.00;102427.59;4978107;28;20081;-83
2022/11/30 09:51:25;;;;;;;27.55;16.52;;;;;;;6.57;100.00;102421.34;4972430;28;20045;-84
2022/11/30 09:53:56;;;;;;;26.20;15.13;;;;;;;6.57;100.00;102413.59;4974840;28;20031;-83
2022/11/30 09:56:33;;;;;;;25.00;13.40;;;;;;;6.58;100.00;102416.19;4974968;28;20023;-83
2022/11/30 09:59:05;;;;;;;24.52;13.48;;;;;;;6.59;100.00;102410.22;4972090;28;20023;-83
2022/11/30 10:01:33;;;;;;;24.48;14.02;;;;;;;6.57;100.00;102414.44;4975538;28;20129;-83
2022/11/30 10:03:58;;;;;;;23.27;12.70;;;;;;;6.61;100.00;102418.88;4975499;28;20106;-83
2022/11/30 10:06:52;;;;;;;25.03;13.70;;;;;;;6.62;100.00;102418.03;4974409;28;20420;-83
2022/11/30 10:09:30;;;;;;;24.70;13.55;;;;;;;6.63;100.00;102418.91;4975105;28;20023;-83
2022/11/30 10:12:11;;;;;;;22.00;11.07;;;;;;;6.65;100.00;102415.53;4975093;28;20030;-83
2022/11/30 10:14:51;;;;;;;19.70;9.52;;;;;;;6.70;100.00;102412.19;4974652;28;20041;-83
2022/11/30 10:17:23;;;;;;;17.33;8.15;;;;;;;6.74;100.00;102409.72;4972901;28;20019;-86
2022/11/30 10:20:02;;;;;;;18.95;9.05;;;;;;;6.78;100.00;102410.69;4974710;28;20031;-87
2022/11/30 10:23:01;;;;;;;16.45;7.55;;;;;;;6.85;100.00;102409.13;4975272;28;20050;-85
2022/11/30 10:25:56;;;;;;;19.17;9.10;;;;;;;6.85;100.00;102411.72;4974708;28;20034;-85
2022/11/30 10:28:40;;;;;;;20.73;9.77;;;;;;;6.89;100.00;102408.38;4974278;28;20027;-85
2022/11/30 10:31:13;;;;;;;19.08;8.55;;;;;;;6.94;100.00;102411.94;4974649;28;20039;-84
2022/11/30 10:33:50;;;;;;;23.35;12.63;;;;;;;6.91;100.00;102411.88;4980645;23;20546;-83
2022/11/30 10:36:35;;;;;;;24.50;12.93;;;;;;;6.95;100.00;102403.38;4974549;28;20027;-83
2022/11/30 10:39:04;;;;;;;23.17;12.45;;;;;;;7.00;100.00;102406.06;4974713;28;20031;-83
2022/11/30 10:41:36;;;;;;;23.42;12.25;;;;;;;7.03;100.00;102399.28;4973833;28;20030;-83
2022/11/30 10:44:16;;;;;;;22.70;12.27;;;;;;;7.07;100.00;102406.25;4974567;28;20035;-83
2022/11/30 10:46:51;;;;;;;24.25;13.50;;;;;;;7.08;100.00;102400.25;4974733;28;20023;-84
2022/11/30 10:49:18;;;;;;;23.63;12.43;;;;;;;7.13;100.00;102402.94;4973376;28;20030;-84
2022/11/30 10:51:49;;;;;;;24.08;13.57;;;;;;;7.17;100.00;102398.72;4974500;28;20391;-84
2022/11/30 10:54:17;;;;;;;24.13;13.35;;;;;;;7.18;99.91;102395.31;4974129;28;20089;-84
2022/11/30 10:56:43;;;;;;;23.02;12.02;;;;;;;7.20;100.00;102397.09;4973905;28;20035;-83
2022/11/30 10:59:21;;;;;;;22.17;11.50;;;;;;;7.28;100.00;102399.00;4973786;28;20039;-84
2022/11/30 11:01:46;;;;;;;24.73;14.00;;;;;;;7.26;95.89;102394.66;4973855;28;20434;-85
2022/11/30 11:04:12;;;;;;;25.10;14.03;;;;;;;7.30;93.70;102394.75;4974154;28;20026;-84
2022/11/30 11:06:50;;;;;;;25.50;14.18;;;;;;;7.34;95.70;102393.94;4974173;28;20565;-84
2022/11/30 11:09:32;;;;;;;23.67;12.70;;;;;;;7.39;96.93;102397.53;4973456;28;20065;-84
2022/11/30 11:12:21;;;;;;;24.08;12.98;;;;;;;7.40;95.66;102404.44;4974236;28;20114;-85
2022/11/30 11:14:46;;;;;;;26.55;14.90;;;;;;;7.40;96.37;102407.03;4974354;28;20102;-84
2022/11/30 11:17:18;;;;;;;25.10;14.27;;;;;;;7.40;97.41;102405.31;4973257;28;20059;-84
2022/11/30 11:19:45;;;;;;;28.60;16.08;;;;;;;7.37;95.24;102391.44;4973785;28;20042;-84
2022/11/30 11:22:22;;;;;;;26.13;14.90;;;;;;;7.39;96.43;102395.81;4973835;28;20448;-84
2022/11/30 11:24:55;;;;;;;25.73;14.07;;;;;;;7.43;97.35;102391.56;4973700;28;20082;-85
2022/11/30 11:27:26;;;;;;;26.50;15.07;;;;;;;7.44;95.75;102389.88;4973744;28;20026;-84
2022/11/30 11:30:16;;;;;;;25.05;13.40;;;;;;;7.49;97.89;102399.47;4973521;28;20019;-84
2022/11/30 11:32:57;;;;;;;23.75;12.93;;;;;;;7.54;97.27;102382.34;4978234;28;20498;-84